Time;durP1;ratioP1;P1;durP2;ratioP2;P2;SDS_P1;SDS_P2;PMS_P1;PMS_P2;Temp;Humidity;BMP_temperature;BMP_pressure;BME280_temperature;BME280_humidity;BME280_pressure;Samples;Min_cycle;Max_cycle;Signal;HPM_P1;HPM_P2
2022/12/09 00:01:47;;;;;;;11.27;5.57;;;2.70;99.90;;;;;;4993342;28;20073;-72
2022/12/09 00:04:13;;;;;;;10.98;4.53;;;2.70;99.90;;;;;;4994955;28;20030;-72
2022/12/09 00:06:39;;;;;;;8.20;4.85;;;2.70;99.90;;;;;;4993585;28;20183;-73
2022/12/09 00:09:04;;;;;;;7.80;4.43;;;2.70;99.90;;;;;;5002640;28;20081;-72
2022/12/09 00:11:30;;;;;;;7.85;3.78;;;2.60;99.90;;;;;;4992474;28;20359;-72
2022/12/09 00:13:57;;;;;;;9.40;4.97;;;2.60;99.90;;;;;;5002631;28;20040;-72
2022/12/09 00:16:24;;;;;;;9.13;4.65;;;2.60;99.90;;;;;;5003962;28;20038;-72
2022/12/09 00:18:51;;;;;;;8.50;3.90;;;2.60;99.90;;;;;;4998281;28;20116;-73
2022/12/09 00:21:22;;;;;;;7.72;4.57;;;2.60;99.90;;;;;;5001281;28;20697;-72
2022/12/09 00:23:49;;;;;;;7.13;4.00;;;2.60;99.90;;;;;;4993968;28;20453;-72
2022/12/09 00:26:17;;;;;;;7.35;4.50;;;2.40;99.90;;;;;;5003783;28;20167;-72
2022/12/09 00:28:43;;;;;;;9.23;4.95;;;2.30;99.90;;;;;;4998476;28;20108;-72
2022/12/09 00:31:12;;;;;;;10.32;5.20;;;2.30;99.90;;;;;;4992073;28;20501;-72
2022/12/09 00:33:38;;;;;;;8.20;5.00;;;2.30;99.90;;;;;;4992197;28;20038;-72
2022/12/09 00:36:09;;;;;;;11.05;4.57;;;2.50;99.90;;;;;;4998636;28;20545;-72
2022/12/09 00:38:36;;;;;;;7.90;4.80;;;2.50;99.90;;;;;;5001833;28;20037;-72
2022/12/09 00:41:03;;;;;;;7.20;4.35;;;2.40;99.90;;;;;;5001052;28;20038;-73
2022/12/09 00:43:28;;;;;;;10.50;5.55;;;2.20;99.90;;;;;;4999119;28;20092;-72
2022/12/09 00:45:54;;;;;;;8.90;4.80;;;2.20;99.90;;;;;;4991583;28;20038;-72
2022/12/09 00:48:19;;;;;;;8.20;4.07;;;2.20;99.90;;;;;;4993558;28;20380;-72
2022/12/09 00:50:45;;;;;;;9.90;4.50;;;2.00;99.90;;;;;;4997148;28;20033;-72
2022/12/09 00:53:11;;;;;;;7.68;4.65;;;1.90;99.90;;;;;;5002115;28;20523;-72
2022/12/09 00:55:37;;;;;;;8.88;4.97;;;1.90;99.90;;;;;;4990803;28;20061;-72
2022/12/09 00:58:03;;;;;;;9.20;4.88;;;1.90;99.90;;;;;;4998730;28;20057;-72
2022/12/09 01:00:29;;;;;;;8.40;5.32;;;1.90;99.90;;;;;;4995330;28;20201;-72
2022/12/09 01:02:55;;;;;;;11.13;5.90;;;1.90;99.90;;;;;;4994711;28;20030;-72
2022/12/09 01:05:21;;;;;;;8.77;5.25;;;1.90;99.90;;;;;;4993782;28;20087;-72
2022/12/09 01:07:46;;;;;;;10.18;5.93;;;1.80;99.90;;;;;;5002304;28;20033;-72
2022/12/09 01:10:12;;;;;;;10.77;6.40;;;1.80;99.90;;;;;;4998096;28;20030;-72
2022/12/09 01:12:38;;;;;;;9.45;5.70;;;1.80;99.90;;;;;;5002189;28;20743;-72
2022/12/09 01:15:05;;;;;;;8.70;5.10;;;1.70;99.90;;;;;;4999691;28;20021;-72
2022/12/09 01:17:31;;;;;;;10.15;5.40;;;1.60;99.90;;;;;;5000752;28;20033;-72
2022/12/09 01:19:56;;;;;;;10.38;6.20;;;1.60;99.90;;;;;;5003155;28;20083;-72
2022/12/09 01:22:22;;;;;;;9.73;6.18;;;1.70;99.90;;;;;;5000665;28;20130;-72
2022/12/09 01:24:48;;;;;;;8.68;4.97;;;1.60;99.90;;;;;;5001838;28;20469;-72
2022/12/09 01:27:14;;;;;;;14.48;5.95;;;1.60;99.90;;;;;;5001252;28;20487;-72
2022/12/09 01:29:42;;;;;;;10.57;6.13;;;1.60;99.90;;;;;;4991390;28;20033;-72
2022/12/09 01:32:08;;;;;;;9.68;5.85;;;1.60;99.90;;;;;;5004166;28;20034;-72
2022/12/09 01:34:34;;;;;;;10.63;5.93;;;1.70;99.90;;;;;;4999323;28;20057;-72
2022/12/09 01:37:00;;;;;;;9.75;6.20;;;1.70;99.90;;;;;;5000681;28;20038;-72
2022/12/09 01:39:25;;;;;;;11.13;6.45;;;1.60;99.90;;;;;;5006022;28;20380;-72
2022/12/09 01:41:51;;;;;;;11.30;5.78;;;1.60;99.90;;;;;;4995995;28;20030;-72
2022/12/09 01:44:24;;;;;;;13.35;6.72;;;1.60;99.90;;;;;;5008288;28;20025;-72
2022/12/09 01:46:55;;;;;;;10.73;6.32;;;1.70;99.90;;;;;;4994266;28;20455;-73
2022/12/09 01:49:26;;;;;;;13.38;6.88;;;1.90;99.90;;;;;;4997203;28;20018;-72
2022/12/09 01:52:06;;;;;;;9.30;5.93;;;1.90;99.90;;;;;;4996920;28;20046;-72
2022/12/09 01:54:32;;;;;;;10.32;5.80;;;1.90;99.90;;;;;;4992504;28;20532;-72
2022/12/09 01:56:58;;;;;;;8.68;5.30;;;1.80;99.90;;;;;;4990974;28;20030;-73
2022/12/09 01:59:25;;;;;;;7.63;4.88;;;1.80;99.90;;;;;;4997281;28;20029;-72
2022/12/09 02:01:56;;;;;;;7.70;5.03;;;1.60;99.90;;;;;;4992812;28;23732;-72
2022/12/09 02:04:21;;;;;;;8.55;5.38;;;1.70;99.90;;;;;;4994413;28;20528;-72
2022/12/09 02:06:47;;;;;;;7.95;5.22;;;1.80;99.90;;;;;;4999219;28;20033;-72
2022/12/09 02:09:13;;;;;;;12.27;5.95;;;1.90;99.90;;;;;;4992150;28;20030;-72
2022/12/09 02:12:12;;;;;;;12.43;6.55;;;2.00;99.90;;;;;;5000305;28;20030;-72
2022/12/09 02:14:41;;;;;;;11.23;6.22;;;2.10;99.90;;;;;;4997696;28;20131;-72
2022/12/09 02:17:16;;;;;;;13.23;6.80;;;2.00;99.90;;;;;;4997629;28;20096;-72
2022/12/09 02:19:53;;;;;;;8.73;5.60;;;2.10;99.90;;;;;;4998894;28;20049;-72
2022/12/09 02:22:25;;;;;;;11.02;6.22;;;2.20;99.90;;;;;;5001760;28;20030;-72
2022/12/09 02:25:02;;;;;;;13.52;7.15;;;2.20;99.90;;;;;;4990220;28;20750;-72
2022/12/09 02:27:47;;;;;;;9.95;6.22;;;2.20;99.90;;;;;;4990598;28;20489;-73
2022/12/09 02:30:18;;;;;;;;;;;2.20;99.90;;;;;;4991558;28;20042;-72
2022/12/09 02:33:01;;;;;;;17.58;8.45;;;2.10;99.90;;;;;;4994805;28;19929;-72
2022/12/09 02:35:39;;;;;;;11.38;5.80;;;2.20;99.90;;;;;;4991649;28;20393;-72
2022/12/09 02:38:10;;;;;;;9.48;5.70;;;2.20;99.90;;;;;;5010699;28;20022;-72
2022/12/09 02:40:56;;;;;;;10.40;5.82;;;1.90;99.90;;;;;;5009809;28;20026;-73
2022/12/09 02:43:25;;;;;;;10.43;6.20;;;1.80;99.90;;;;;;4995354;28;20035;-73
2022/12/09 02:45:52;;;;;;;11.52;6.15;;;1.70;99.90;;;;;;4996206;28;20492;-72
2022/12/09 02:48:23;;;;;;;9.57;6.13;;;1.70;99.90;;;;;;4997173;28;20030;-72
2022/12/09 02:50:51;;;;;;;11.05;6.47;;;1.70;99.90;;;;;;5006675;28;20034;-72
2022/12/09 02:53:17;;;;;;;13.55;7.35;;;1.80;99.90;;;;;;5001062;28;20040;-72
2022/12/09 02:55:46;;;;;;;22.65;15.15;;;1.90;99.90;;;;;;4997566;28;20085;-72
2022/12/09 02:58:11;;;;;;;10.95;6.20;;;2.00;99.90;;;;;;5001941;28;20044;-72
2022/12/09 03:00:39;;;;;;;9.48;6.00;;;2.00;99.90;;;;;;4997777;28;20047;-72
2022/12/09 03:03:10;;;;;;;8.93;5.55;;;1.90;99.90;;;;;;4999282;28;20037;-72
2022/12/09 03:05:58;;;;;;;11.50;5.85;;;2.00;99.90;;;;;;5002301;28;20069;-73
2022/12/09 03:08:51;;;;;;;9.98;6.68;;;2.10;99.90;;;;;;5007408;28;20033;-72
2022/12/09 03:11:19;;;;;;;10.10;6.10;;;2.10;99.90;;;;;;4997002;28;20034;-72
2022/12/09 03:14:03;;;;;;;9.88;6.13;;;2.20;99.90;;;;;;4998556;28;20046;-72
2022/12/09 03:16:34;;;;;;;9.70;6.13;;;2.20;99.90;;;;;;5004239;28;20038;-72
2022/12/09 03:19:15;;;;;;;12.05;8.20;;;2.20;99.90;;;;;;5000555;28;20032;-72
2022/12/09 03:21:44;;;;;;;14.48;8.50;;;2.30;99.90;;;;;;5006585;28;20029;-72
2022/12/09 03:24:14;;;;;;;8.57;5.90;;;2.30;99.90;;;;;;4997448;28;20054;-72
2022/12/09 03:26:41;;;;;;;10.15;5.47;;;2.30;99.90;;;;;;4996317;28;20034;-73
2022/12/09 03:29:15;;;;;;;10.15;6.47;;;2.20;99.90;;;;;;4994974;28;20401;-72
2022/12/09 03:31:43;;;;;;;19.15;10.98;;;2.10;99.90;;;;;;4993688;28;20030;-72
2022/12/09 03:34:12;;;;;;;14.25;8.32;;;2.20;99.90;;;;;;4992900;28;20524;-72
2022/12/09 03:36:40;;;;;;;10.88;7.22;;;2.20;99.90;;;;;;4994625;28;20046;-72
2022/12/09 03:39:13;;;;;;;10.50;7.00;;;2.20;99.90;;;;;;5000578;28;20040;-72
2022/12/09 03:41:54;;;;;;;12.57;7.20;;;2.20;99.90;;;;;;4998193;28;20061;-72
2022/12/09 03:44:29;;;;;;;11.57;6.90;;;2.20;99.90;;;;;;5004616;28;20034;-72
2022/12/09 03:46:55;;;;;;;;;;;2.20;99.90;;;;;;5000815;28;20076;-72
2022/12/09 03:49:21;;;;;;;15.90;9.55;;;2.20;99.90;;;;;;4997989;28;20351;-72
2022/12/09 03:52:01;;;;;;;12.05;7.57;;;2.20;99.90;;;;;;4997774;28;20508;-72
2022/12/09 03:54:46;;;;;;;9.85;6.82;;;2.10;99.90;;;;;;5002260;28;20113;-72
2022/12/09 03:57:14;;;;;;;13.25;7.25;;;2.10;99.90;;;;;;4997723;28;20031;-72
2022/12/09 03:59:42;;;;;;;9.48;5.05;;;2.00;99.90;;;;;;5005377;28;20038;-73
2022/12/09 04:02:08;;;;;;;10.85;5.03;;;2.10;99.90;;;;;;4997104;28;20113;-72
2022/12/09 04:04:37;;;;;;;12.27;5.63;;;2.30;99.90;;;;;;4992755;28;20101;-72
2022/12/09 04:07:03;;;;;;;9.30;4.45;;;2.40;99.90;;;;;;4996151;28;20033;-72
2022/12/09 04:09:28;;;;;;;6.68;4.35;;;2.40;99.90;;;;;;4995195;28;20033;-72
2022/12/09 04:11:54;;;;;;;5.95;3.72;;;2.40;99.90;;;;;;4988449;28;20037;-72
2022/12/09 04:14:19;;;;;;;5.85;3.45;;;2.40;99.90;;;;;;4990191;28;20030;-72
2022/12/09 04:16:45;;;;;;;6.85;4.28;;;2.40;99.90;;;;;;4995916;28;20041;-72
2022/12/09 04:19:11;;;;;;;8.93;4.18;;;2.40;99.90;;;;;;4987599;28;20200;-73
2022/12/09 04:21:37;;;;;;;6.32;3.72;;;2.40;99.90;;;;;;4988702;28;20101;-72
2022/12/09 04:24:02;;;;;;;7.28;3.75;;;2.40;99.90;;;;;;4997844;28;20054;-72
2022/12/09 04:26:28;;;;;;;9.02;3.95;;;2.40;99.90;;;;;;4992393;28;20042;-73
2022/12/09 04:28:54;;;;;;;8.27;4.20;;;2.40;99.90;;;;;;4988152;28;20670;-72
2022/12/09 04:31:19;;;;;;;8.43;3.92;;;2.30;99.90;;;;;;5002087;28;20605;-73
2022/12/09 04:33:46;;;;;;;6.22;3.90;;;2.30;99.90;;;;;;4999288;28;20056;-73
2022/12/09 04:36:14;;;;;;;7.78;4.07;;;2.30;99.90;;;;;;4989526;28;20046;-73
2022/12/09 04:38:40;;;;;;;5.85;3.03;;;2.20;99.90;;;;;;4987924;28;20030;-72
2022/12/09 04:41:06;;;;;;;7.60;3.28;;;2.20;99.90;;;;;;4990401;28;20030;-73
2022/12/09 04:43:32;;;;;;;6.65;3.60;;;2.20;99.90;;;;;;4989231;28;20446;-72
2022/12/09 04:46:04;;;;;;;9.20;4.07;;;2.20;99.90;;;;;;4992768;28;20022;-72
2022/12/09 04:48:30;;;;;;;6.43;3.78;;;2.20;99.90;;;;;;4991651;28;20026;-72
2022/12/09 04:50:55;;;;;;;8.68;3.83;;;2.10;99.90;;;;;;4992284;28;20601;-73
2022/12/09 04:53:21;;;;;;;5.50;3.22;;;2.10;99.90;;;;;;4996521;28;20038;-72
2022/12/09 04:55:47;;;;;;;6.70;3.35;;;2.10;99.90;;;;;;4986757;28;20053;-73
2022/12/09 04:58:13;;;;;;;7.82;4.50;;;2.20;99.90;;;;;;4997712;28;20480;-72
2022/12/09 05:00:38;;;;;;;7.28;4.20;;;2.20;99.90;;;;;;4990183;28;20516;-72
2022/12/09 05:03:04;;;;;;;8.32;5.18;;;2.10;99.90;;;;;;4994973;28;20029;-72
2022/12/09 05:05:30;;;;;;;13.38;6.70;;;1.90;99.90;;;;;;4990852;28;20767;-72
2022/12/09 05:07:56;;;;;;;10.10;6.43;;;1.80;99.90;;;;;;4992039;28;20030;-72
2022/12/09 05:10:21;;;;;;;12.88;6.80;;;1.70;99.90;;;;;;4989965;28;20034;-72
2022/12/09 05:12:47;;;;;;;9.48;5.38;;;1.70;99.90;;;;;;4987312;28;20049;-73
2022/12/09 05:15:13;;;;;;;9.90;6.20;;;1.70;99.90;;;;;;4984727;28;20041;-72
2022/12/09 05:17:38;;;;;;;10.20;6.65;;;1.70;99.90;;;;;;4987473;28;20084;-72
2022/12/09 05:20:05;;;;;;;10.82;5.93;;;1.60;99.90;;;;;;4997066;28;20034;-73
2022/12/09 05:22:31;;;;;;;7.07;4.47;;;1.60;99.90;;;;;;4991149;28;20587;-72
2022/12/09 05:24:56;;;;;;;9.73;4.32;;;1.70;99.90;;;;;;4996798;28;20112;-72
2022/12/09 05:27:22;;;;;;;7.63;4.13;;;1.80;99.90;;;;;;4991786;28;20026;-73
2022/12/09 05:29:47;;;;;;;6.90;3.67;;;1.80;99.90;;;;;;4986642;28;20057;-73
2022/12/09 05:32:13;;;;;;;8.13;4.47;;;1.80;99.90;;;;;;4994047;28;20041;-72
2022/12/09 05:34:39;;;;;;;12.43;5.40;;;1.70;99.90;;;;;;4990946;28;20033;-72
2022/12/09 05:37:04;;;;;;;6.72;4.05;;;1.70;99.90;;;;;;4989172;28;20140;-72
2022/12/09 05:39:30;;;;;;;7.35;4.05;;;1.70;99.90;;;;;;4992490;28;20427;-72
2022/12/09 05:41:56;;;;;;;8.27;4.75;;;1.70;99.90;;;;;;4991537;28;20030;-72
2022/12/09 05:44:21;;;;;;;8.35;4.18;;;1.60;99.90;;;;;;4992641;28;20037;-72
2022/12/09 05:46:47;;;;;;;7.80;4.63;;;1.50;99.90;;;;;;4991320;28;20081;-72
2022/12/09 05:49:12;;;;;;;10.18;4.88;;;1.60;99.90;;;;;;4986766;28;20322;-72
2022/12/09 05:51:38;;;;;;;9.15;5.07;;;1.60;99.90;;;;;;4985290;28;20026;-72
2022/12/09 05:54:05;;;;;;;10.80;4.75;;;1.50;99.90;;;;;;5004889;28;20045;-73
2022/12/09 05:56:31;;;;;;;9.07;4.85;;;1.60;99.90;;;;;;4998817;28;20040;-72
2022/12/09 05:58:58;;;;;;;7.60;4.80;;;1.70;99.90;;;;;;4990789;28;20027;-72
2022/12/09 06:01:24;;;;;;;8.45;4.72;;;1.70;99.90;;;;;;4992688;28;20188;-73
2022/12/09 06:03:51;;;;;;;7.80;4.45;;;1.70;99.90;;;;;;4994290;28;20066;-72
2022/12/09 06:06:18;;;;;;;7.60;4.07;;;1.70;99.90;;;;;;4994213;28;20358;-72
2022/12/09 06:08:45;;;;;;;7.65;4.10;;;1.70;99.90;;;;;;4982898;28;20090;-72
2022/12/09 06:11:17;;;;;;;8.85;4.72;;;1.70;99.90;;;;;;4994339;28;20034;-72
2022/12/09 06:13:43;;;;;;;7.05;4.18;;;1.70;99.90;;;;;;4992329;28;20121;-72
2022/12/09 06:16:09;;;;;;;9.38;4.43;;;1.70;99.90;;;;;;4989435;28;20041;-72
2022/12/09 06:18:35;;;;;;;6.32;4.28;;;1.70;99.90;;;;;;4988971;28;20041;-72
2022/12/09 06:21:05;;;;;;;6.93;3.97;;;1.70;99.90;;;;;;4989531;28;20080;-72
2022/12/09 06:23:31;;;;;;;7.97;4.32;;;1.70;99.90;;;;;;4988408;28;20065;-72
2022/12/09 06:25:57;;;;;;;7.55;4.28;;;1.80;99.90;;;;;;4983743;28;20030;-72
2022/12/09 06:28:22;;;;;;;7.07;4.40;;;1.70;99.90;;;;;;4989287;28;20141;-72
2022/12/09 06:30:48;;;;;;;8.60;4.70;;;1.70;99.90;;;;;;4990504;28;20531;-72
2022/12/09 06:33:14;;;;;;;9.27;5.00;;;1.70;99.90;;;;;;4990334;28;20038;-72
2022/12/09 06:35:39;;;;;;;7.35;4.57;;;1.70;99.90;;;;;;4982059;28;20061;-72
2022/12/09 06:38:05;;;;;;;8.13;4.82;;;1.50;99.90;;;;;;4992847;28;20536;-72
2022/12/09 06:40:30;;;;;;;7.85;4.22;;;1.60;99.90;;;;;;4988632;28;20039;-72
2022/12/09 06:42:56;;;;;;;6.90;4.00;;;1.60;99.90;;;;;;4994652;28;20412;-72
2022/12/09 06:45:22;;;;;;;6.57;4.22;;;1.60;99.90;;;;;;4988790;28;20038;-72
2022/12/09 06:47:48;;;;;;;9.18;4.30;;;1.60;99.90;;;;;;4997484;28;20092;-72
2022/12/09 06:50:14;;;;;;;8.25;4.40;;;1.60;99.90;;;;;;4991293;28;20678;-72
2022/12/09 06:52:40;;;;;;;10.23;4.75;;;1.70;99.90;;;;;;4983911;28;20408;-72
2022/12/09 06:55:07;;;;;;;9.02;4.82;;;1.60;99.90;;;;;;4994978;28;20056;-72
2022/12/09 06:57:32;;;;;;;7.43;4.40;;;1.60;99.90;;;;;;4990176;28;20076;-72
2022/12/09 06:59:58;;;;;;;8.95;4.78;;;1.60;99.90;;;;;;4989325;28;20034;-72
2022/12/09 07:02:24;;;;;;;7.82;4.53;;;1.50;99.90;;;;;;4992429;28;20084;-72
2022/12/09 07:04:56;;;;;;;11.35;4.80;;;1.60;99.90;;;;;;4995642;28;20362;-72
2022/12/09 07:07:22;;;;;;;8.07;4.95;;;1.60;99.90;;;;;;4987625;28;20030;-72
2022/12/09 07:09:48;;;;;;;7.45;4.35;;;1.60;99.90;;;;;;5001761;28;20540;-72
2022/12/09 07:12:13;;;;;;;7.68;4.38;;;1.70;99.90;;;;;;5004414;28;20026;-72
2022/12/09 07:14:39;;;;;;;8.75;4.55;;;1.70;99.90;;;;;;4991107;28;20113;-72
2022/12/09 07:17:05;;;;;;;6.93;4.18;;;1.60;99.90;;;;;;4988157;28;20116;-73
2022/12/09 07:19:31;;;;;;;6.68;4.35;;;1.50;99.90;;;;;;4996814;28;20039;-72
2022/12/09 07:21:56;;;;;;;8.85;4.45;;;1.60;99.90;;;;;;4992695;28;20936;-73
2022/12/09 07:24:23;;;;;;;7.05;4.35;;;1.60;99.90;;;;;;4994724;28;20041;-72
2022/12/09 07:26:49;;;;;;;17.63;11.00;;;1.60;99.90;;;;;;4993859;28;20410;-73
2022/12/09 07:29:15;;;;;;;8.88;5.85;;;1.70;99.90;;;;;;4996352;28;20389;-72
2022/12/09 07:31:41;;;;;;;8.38;5.28;;;1.70;99.90;;;;;;5000064;28;20041;-72
2022/12/09 07:34:06;;;;;;;11.60;7.03;;;1.70;99.90;;;;;;4994510;28;20038;-73
2022/12/09 07:36:34;;;;;;;8.63;5.05;;;1.70;99.90;;;;;;4998009;28;20076;-73
2022/12/09 07:39:02;;;;;;;9.77;6.40;;;1.80;99.90;;;;;;4993459;28;20073;-73
2022/12/09 07:41:28;;;;;;;10.48;5.32;;;1.90;99.90;;;;;;4989233;28;20061;-72
2022/12/09 07:43:54;;;;;;;8.85;4.57;;;1.90;99.90;;;;;;4989950;28;20023;-73
2022/12/09 07:46:21;;;;;;;9.07;5.45;;;1.90;99.90;;;;;;4996520;28;20053;-72
2022/12/09 07:48:47;;;;;;;11.18;5.55;;;1.80;99.90;;;;;;5000459;28;20052;-73
2022/12/09 07:51:14;;;;;;;8.63;5.25;;;1.80;99.90;;;;;;5000640;28;20069;-72
2022/12/09 07:53:40;;;;;;;10.88;6.55;;;1.70;99.90;;;;;;4995646;28;20120;-72
2022/12/09 07:56:10;;;;;;;6.35;4.28;;;1.70;99.90;;;;;;4992478;28;20614;-72
2022/12/09 07:58:36;;;;;;;11.65;5.50;;;1.60;99.90;;;;;;4990398;28;20424;-72
2022/12/09 08:01:10;;;;;;;9.77;4.93;;;1.50;99.90;;;;;;4993050;28;20026;-72
2022/12/09 08:03:37;;;;;;;9.55;5.28;;;1.50;99.90;;;;;;4987012;28;20524;-72
2022/12/09 08:06:03;;;;;;;8.75;4.25;;;1.60;99.90;;;;;;4983300;28;20038;-72
2022/12/09 08:08:29;;;;;;;7.03;4.53;;;1.50;99.90;;;;;;4983955;28;20034;-72
2022/12/09 08:10:55;;;;;;;7.55;3.78;;;1.60;99.90;;;;;;4991268;28;20372;-72
2022/12/09 08:13:21;;;;;;;8.43;3.85;;;1.60;99.90;;;;;;4986247;28;20045;-71
2022/12/09 08:15:46;;;;;;;7.85;4.13;;;1.50;99.90;;;;;;4986718;28;20104;-72
2022/12/09 08:18:12;;;;;;;5.93;3.08;;;1.50;99.90;;;;;;4988269;28;20026;-72
2022/12/09 08:20:39;;;;;;;8.02;4.57;;;1.50;99.90;;;;;;4992058;28;20103;-72
2022/12/09 08:23:05;;;;;;;6.28;3.97;;;1.60;99.90;;;;;;4989774;28;20057;-72
2022/12/09 08:25:31;;;;;;;6.22;3.85;;;1.60;99.90;;;;;;4992248;28;20038;-72
2022/12/09 08:27:57;;;;;;;6.28;3.65;;;1.50;99.90;;;;;;5000604;28;20600;-72
2022/12/09 08:30:23;;;;;;;5.82;3.55;;;1.60;99.90;;;;;;4988041;28;20039;-72
2022/12/09 08:32:48;;;;;;;6.35;3.55;;;1.50;99.90;;;;;;4986398;28;20046;-72
2022/12/09 08:35:14;;;;;;;6.30;3.53;;;1.50;99.90;;;;;;4991336;28;20800;-72
2022/12/09 08:37:41;;;;;;;5.43;3.15;;;1.40;99.90;;;;;;4991109;28;20595;-71
2022/12/09 08:40:08;;;;;;;5.55;3.15;;;1.40;99.90;;;;;;4996569;28;20029;-71
2022/12/09 08:42:34;;;;;;;7.65;3.90;;;1.50;99.90;;;;;;4995593;28;20160;-71
2022/12/09 08:44:59;;;;;;;7.32;4.40;;;1.60;99.90;;;;;;4987599;28;20038;-70
2022/12/09 08:47:26;;;;;;;7.47;4.30;;;1.50;99.90;;;;;;4999366;28;20030;-70
2022/12/09 08:49:52;;;;;;;7.05;3.67;;;1.50;99.90;;;;;;4985974;28;20034;-70
2022/12/09 08:52:18;;;;;;;7.50;4.50;;;1.40;99.90;;;;;;4989656;28;20160;-70
2022/12/09 08:54:44;;;;;;;6.97;4.18;;;1.40;99.90;;;;;;4995682;28;20157;-70
2022/12/09 08:57:09;;;;;;;6.22;4.05;;;1.30;99.90;;;;;;4988208;28;20117;-70
2022/12/09 08:59:35;;;;;;;7.85;4.28;;;1.30;99.90;;;;;;4986348;28;20034;-70
2022/12/09 09:02:01;;;;;;;8.57;4.68;;;1.30;99.90;;;;;;4999729;28;20022;-70
2022/12/09 09:04:26;;;;;;;7.70;4.25;;;1.30;99.90;;;;;;5002433;28;21055;-70
2022/12/09 09:06:52;;;;;;;7.47;4.10;;;1.30;99.90;;;;;;4992203;28;20049;-70
2022/12/09 09:09:19;;;;;;;7.82;4.53;;;1.20;99.90;;;;;;4993153;28;20026;-70
2022/12/09 09:11:45;;;;;;;7.43;4.25;;;1.20;99.90;;;;;;5007491;28;20030;-70
2022/12/09 09:14:12;;;;;;;6.35;3.97;;;1.20;99.90;;;;;;4995205;28;20037;-70
2022/12/09 09:16:40;;;;;;;6.68;4.30;;;1.30;99.90;;;;;;5000670;28;20030;-70
2022/12/09 09:19:06;;;;;;;7.40;4.00;;;1.30;99.90;;;;;;5000532;28;20022;-70
2022/12/09 09:21:32;;;;;;;7.53;4.65;;;1.30;99.90;;;;;;4990239;28;20030;-70
2022/12/09 09:23:58;;;;;;;6.43;4.30;;;1.30;99.90;;;;;;4984449;28;20085;-70
2022/12/09 09:26:28;;;;;;;7.38;4.10;;;1.30;99.90;;;;;;4989121;28;20034;-70
2022/12/09 09:28:55;;;;;;;5.15;3.30;;;1.40;99.90;;;;;;4998162;28;20026;-70
2022/12/09 09:31:22;;;;;;;7.07;4.00;;;1.40;99.90;;;;;;4989168;28;20041;-70
2022/12/09 09:33:49;;;;;;;122.97;66.13;;;1.40;99.90;;;;;;4989476;28;20044;-70
2022/12/09 09:36:19;;;;;;;13.30;6.65;;;1.40;99.90;;;;;;4990303;28;20101;-70
2022/12/09 09:38:46;;;;;;;5.43;3.90;;;1.30;99.90;;;;;;4991025;28;20034;-70
2022/12/09 09:41:33;;;;;;;5.80;2.97;;;1.30;99.90;;;;;;4986170;28;20461;-70
2022/12/09 09:43:59;;;;;;;5.15;3.30;;;1.30;99.90;;;;;;4993230;28;20045;-70
2022/12/09 09:46:46;;;;;;;4.97;2.97;;;1.10;99.90;;;;;;4989487;28;20026;-70
2022/12/09 09:49:18;;;;;;;5.60;3.40;;;1.10;99.90;;;;;;4982082;28;20061;-70
2022/12/09 09:51:45;;;;;;;4.88;3.15;;;1.10;99.90;;;;;;4991817;28;20029;-70
2022/12/09 09:54:13;;;;;;;5.03;3.00;;;1.10;99.90;;;;;;4987045;28;20038;-71
2022/12/09 09:56:53;;;;;;;4.45;2.83;;;1.20;99.90;;;;;;4988536;28;20058;-70
2022/12/09 09:59:50;;;;;;;4.35;2.70;;;1.20;99.90;;;;;;4985008;28;20104;-70
2022/12/09 10:02:28;;;;;;;5.80;3.20;;;1.30;99.90;;;;;;4991025;28;20608;-70
2022/12/09 10:05:42;;;;;;;4.47;3.05;;;1.30;99.90;;;;;;4987050;28;20030;-70
2022/12/09 10:08:10;;;;;;;4.13;2.70;;;1.40;99.90;;;;;;4989097;28;20033;-70
2022/12/09 10:10:57;;;;;;;5.03;3.30;;;1.30;99.90;;;;;;4987799;28;20121;-70
2022/12/09 10:13:55;;;;;;;4.97;3.33;;;1.30;99.90;;;;;;4984657;28;20401;-70
2022/12/09 10:16:52;;;;;;;5.65;3.33;;;1.30;99.90;;;;;;4983294;28;20041;-70
2022/12/09 10:19:35;;;;;;;5.97;4.40;;;1.50;99.90;;;;;;4986950;28;20050;-70
2022/12/09 10:22:20;;;;;;;5.47;3.22;;;1.40;99.90;;;;;;4997860;28;20026;-70
2022/12/09 10:24:49;;;;;;;4.75;2.72;;;1.40;99.90;;;;;;4986686;28;20034;-70
2022/12/09 10:27:40;;;;;;;4.53;2.97;;;1.50;99.90;;;;;;4986147;28;20034;-70
2022/12/09 10:30:10;;;;;;;4.47;2.72;;;1.50;99.90;;;;;;4990872;28;20021;-70
2022/12/09 10:32:36;;;;;;;3.03;1.83;;;1.50;99.90;;;;;;4982383;28;20501;-70
2022/12/09 10:35:22;;;;;;;3.40;2.13;;;1.50;99.90;;;;;;4985955;28;20042;-70
2022/12/09 10:37:53;;;;;;;3.42;2.22;;;1.50;99.90;;;;;;4983298;28;20465;-70
2022/12/09 10:40:48;;;;;;;3.67;1.98;;;1.50;99.90;;;;;;4987345;28;20033;-70
2022/12/09 10:43:41;;;;;;;2.83;1.42;;;1.50;99.90;;;;;;4983752;28;20034;-70
2022/12/09 10:46:27;;;;;;;2.65;1.50;;;1.50;99.90;;;;;;4996173;28;20152;-70
2022/12/09 10:48:57;;;;;;;1.77;1.02;;;1.50;99.90;;;;;;4982388;28;20156;-70
2022/12/09 10:51:33;;;;;;;1.58;0.95;;;1.40;99.90;;;;;;4994634;28;20062;-70
2022/12/09 10:54:24;;;;;;;2.60;1.08;;;1.40;99.90;;;;;;4984055;28;20046;-70
2022/12/09 10:57:23;;;;;;;2.53;1.30;;;1.60;99.90;;;;;;4988329;28;20057;-70
2022/12/09 11:00:20;;;;;;;2.13;1.25;;;1.60;99.90;;;;;;4976642;28;20051;-70
2022/12/09 11:02:52;;;;;;;2.90;1.50;;;1.50;99.90;;;;;;4986475;28;20045;-70
2022/12/09 11:05:21;;;;;;;1.63;1.23;;;1.50;99.90;;;;;;4992765;28;20038;-70
2022/12/09 11:07:49;;;;;;;2.90;1.40;;;1.50;99.90;;;;;;4992199;28;20169;-70
2022/12/09 11:10:20;;;;;;;2.58;1.70;;;1.50;99.90;;;;;;4996544;28;20045;-70
2022/12/09 11:12:50;;;;;;;2.90;1.75;;;1.50;99.90;;;;;;4991600;28;20114;-70
2022/12/09 11:15:34;;;;;;;3.53;1.95;;;1.70;99.90;;;;;;4994347;28;20141;-70
2022/12/09 11:18:23;;;;;;;2.80;1.30;;;1.60;99.90;;;;;;4999440;28;20072;-70
2022/12/09 11:21:01;;;;;;;3.90;1.95;;;1.70;99.90;;;;;;4988318;28;20047;-70
2022/12/09 11:23:26;;;;;;;3.05;1.73;;;1.60;99.90;;;;;;4989932;28;20081;-70
2022/12/09 11:25:58;;;;;;;3.25;1.50;;;1.60;99.90;;;;;;4988753;28;20630;-70
2022/12/09 11:28:29;;;;;;;2.58;1.33;;;1.60;99.90;;;;;;4987345;28;20101;-70
2022/12/09 11:31:13;;;;;;;2.33;1.40;;;1.60;99.90;;;;;;4998623;28;20616;-70
2022/12/09 11:33:52;;;;;;;2.90;1.85;;;1.60;99.90;;;;;;4987046;28;20125;-70
2022/12/09 11:36:26;;;;;;;3.33;1.95;;;1.80;99.90;;;;;;4997688;28;20083;-70
2022/12/09 11:39:07;;;;;;;3.70;1.90;;;1.70;99.90;;;;;;4988106;28;20026;-70
2022/12/09 11:44:23;;;;;;;2.80;1.50;;;1.80;99.90;;;;;;4987319;28;20041;-70
2022/12/09 11:47:03;;;;;;;3.15;1.70;;;1.80;99.90;;;;;;4996976;28;20029;-70
2022/12/09 11:49:33;;;;;;;2.80;1.48;;;1.70;99.90;;;;;;4990626;28;20049;-70
2022/12/09 11:52:17;;;;;;;3.17;1.50;;;1.60;99.90;;;;;;4986810;28;20080;-70
2022/12/09 11:55:13;;;;;;;3.03;1.67;;;1.50;99.90;;;;;;4992310;28;20065;-70
2022/12/09 11:58:17;;;;;;;3.17;2.00;;;1.60;99.90;;;;;;4987409;28;20035;-70
2022/12/09 12:00:53;;;;;;;3.22;1.80;;;1.60;99.90;;;;;;4991603;28;20400;-70
2022/12/09 12:03:47;;;;;;;5.20;2.53;;;1.60;99.90;;;;;;4985168;28;20093;-70
2022/12/09 12:06:21;;;;;;;3.30;1.92;;;1.80;99.90;;;;;;4970180;28;20054;-70
2022/12/09 12:09:18;;;;;;;3.70;1.85;;;1.70;99.90;;;;;;4995104;28;20590;-70
2022/12/09 12:12:21;;;;;;;4.32;2.60;;;1.70;99.90;;;;;;4992622;28;20038;-70
2022/12/09 12:14:46;;;;;;;4.38;2.50;;;1.80;99.90;;;;;;4988640;28;20041;-70
2022/12/09 12:17:35;;;;;;;3.67;2.05;;;1.90;99.90;;;;;;4994020;28;20032;-70
2022/12/09 12:20:02;;;;;;;4.60;2.53;;;1.80;99.90;;;;;;4998168;28;20023;-70
2022/12/09 12:22:54;;;;;;;3.85;2.40;;;1.80;99.90;;;;;;4995923;28;20404;-68
2022/12/09 12:25:23;;;;;;;4.80;2.30;;;2.00;99.90;;;;;;4997851;28;20590;-70
2022/12/09 12:28:21;;;;;;;3.55;2.08;;;1.80;99.90;;;;;;4995014;28;20054;-69
2022/12/09 12:30:56;;;;;;;5.22;2.63;;;1.70;99.90;;;;;;5002186;28;20061;-69
2022/12/09 12:33:34;;;;;;;4.40;2.42;;;1.70;99.90;;;;;;4988042;28;20094;-69
2022/12/09 12:36:21;;;;;;;3.92;2.53;;;1.70;99.90;;;;;;4991427;28;20029;-70
2022/12/09 12:39:12;;;;;;;4.03;2.40;;;1.70;99.90;;;;;;4992120;28;20578;-69
2022/12/09 12:42:24;;;;;;;4.38;2.63;;;1.70;99.90;;;;;;4993392;28;20023;-69
2022/12/09 12:48:06;;;;;;;4.88;3.28;;;1.60;99.90;;;;;;4991365;28;20298;-70
2022/12/09 12:51:17;;;;;;;4.07;2.45;;;1.40;99.90;;;;;;4995343;28;20662;-69
2022/12/09 12:54:22;;;;;;;3.90;2.08;;;1.40;99.90;;;;;;4960552;28;20585;-69
2022/12/09 12:57:25;;;;;;;3.45;2.00;;;1.50;99.90;;;;;;4910063;29;20048;-69
2022/12/09 13:00:00;;;;;;;5.70;4.68;;;1.50;99.90;;;;;;4955284;28;20643;-69
2022/12/09 13:02:55;;;;;;;4.55;2.95;;;1.60;99.90;;;;;;4985638;28;20042;-69
2022/12/09 13:05:21;;;;;;;4.50;2.47;;;1.80;99.90;;;;;;4994952;28;20030;-69
2022/12/09 13:08:03;;;;;;;4.03;2.60;;;1.60;99.90;;;;;;4998369;28;20087;-69
2022/12/09 13:10:38;;;;;;;4.28;2.65;;;1.40;99.90;;;;;;4994604;28;20025;-70
2022/12/09 13:13:13;;;;;;;5.00;2.70;;;1.40;99.90;;;;;;4993920;28;20041;-69
2022/12/09 13:15:43;;;;;;;4.15;2.78;;;1.40;99.90;;;;;;4996341;28;20037;-69
2022/12/09 13:18:20;;;;;;;11.45;7.47;;;1.60;99.90;;;;;;5004270;28;20052;-69
2022/12/09 13:20:58;;;;;;;6.13;3.55;;;1.50;99.90;;;;;;5001881;28;20053;-69
2022/12/09 13:23:59;;;;;;;5.45;3.33;;;1.50;99.90;;;;;;5006379;28;20057;-69